sensor_id;sensor_type;location;lat;lon;timestamp;temperature;humidity
60495;DHT22;46342;49.046;11.920;2023-02-28T00:00:01;0.50;54.50
60495;DHT22;46342;49.046;11.920;2023-02-28T00:02:27;0.50;54.50
60495;DHT22;46342;49.046;11.920;2023-02-28T00:04:53;0.50;54.60
60495;DHT22;46342;49.046;11.920;2023-02-28T00:07:26;0.50;54.80
60495;DHT22;46342;49.046;11.920;2023-02-28T00:09:53;0.50;54.70
60495;DHT22;46342;49.046;11.920;2023-02-28T00:12:18;0.50;54.70
60495;DHT22;46342;49.046;11.920;2023-02-28T00:14:44;0.50;54.80
60495;DHT22;46342;49.046;11.920;2023-02-28T00:17:09;0.50;54.80
60495;DHT22;46342;49.046;11.920;2023-02-28T00:19:35;0.50;54.80
60495;DHT22;46342;49.046;11.920;2023-02-28T00:22:00;0.50;54.90
60495;DHT22;46342;49.046;11.920;2023-02-28T00:24:26;0.50;55.00
60495;DHT22;46342;49.046;11.920;2023-02-28T00:26:51;0.50;54.90
60495;DHT22;46342;49.046;11.920;2023-02-28T00:29:17;0.40;54.80
60495;DHT22;46342;49.046;11.920;2023-02-28T00:31:42;0.40;54.90
60495;DHT22;46342;49.046;11.920;2023-02-28T00:34:08;0.40;54.90
60495;DHT22;46342;49.046;11.920;2023-02-28T00:36:33;0.40;54.90
60495;DHT22;46342;49.046;11.920;2023-02-28T00:38:59;0.40;54.80
60495;DHT22;46342;49.046;11.920;2023-02-28T00:41:24;0.40;54.80
60495;DHT22;46342;49.046;11.920;2023-02-28T00:43:50;0.40;54.90
60495;DHT22;46342;49.046;11.920;2023-02-28T00:46:15;0.40;55.00
60495;DHT22;46342;49.046;11.920;2023-02-28T00:48:41;0.40;54.90
60495;DHT22;46342;49.046;11.920;2023-02-28T00:51:07;0.40;54.90
60495;DHT22;46342;49.046;11.920;2023-02-28T00:53:32;0.40;54.90
60495;DHT22;46342;49.046;11.920;2023-02-28T00:55:58;0.30;54.90
60495;DHT22;46342;49.046;11.920;2023-02-28T00:58:24;0.30;54.90
60495;DHT22;46342;49.046;11.920;2023-02-28T01:00:51;0.30;54.90
60495;DHT22;46342;49.046;11.920;2023-02-28T01:03:18;0.30;55.00
60495;DHT22;46342;49.046;11.920;2023-02-28T01:05:44;0.30;54.90
60495;DHT22;46342;49.046;11.920;2023-02-28T01:08:10;0.30;54.90
60495;DHT22;46342;49.046;11.920;2023-02-28T01:10:36;0.30;54.90
60495;DHT22;46342;49.046;11.920;2023-02-28T01:13:02;0.30;54.90
60495;DHT22;46342;49.046;11.920;2023-02-28T01:15:28;0.30;55.00
60495;DHT22;46342;49.046;11.920;2023-02-28T01:17:54;0.30;55.00
60495;DHT22;46342;49.046;11.920;2023-02-28T01:20:19;0.20;55.00
60495;DHT22;46342;49.046;11.920;2023-02-28T01:22:45;0.20;55.10
60495;DHT22;46342;49.046;11.920;2023-02-28T01:25:12;0.20;55.10
60495;DHT22;46342;49.046;11.920;2023-02-28T01:27:37;0.20;55.10
60495;DHT22;46342;49.046;11.920;2023-02-28T01:30:05;0.20;55.10
60495;DHT22;46342;49.046;11.920;2023-02-28T01:32:31;0.20;55.10
60495;DHT22;46342;49.046;11.920;2023-02-28T01:34:57;0.20;55.10
60495;DHT22;46342;49.046;11.920;2023-02-28T01:37:22;0.20;55.10
60495;DHT22;46342;49.046;11.920;2023-02-28T01:39:48;0.20;55.20
60495;DHT22;46342;49.046;11.920;2023-02-28T01:42:13;0.20;55.20
60495;DHT22;46342;49.046;11.920;2023-02-28T01:45:03;0.20;55.20
60495;DHT22;46342;49.046;11.920;2023-02-28T01:47:33;0.20;55.40
60495;DHT22;46342;49.046;11.920;2023-02-28T01:50:02;0.20;55.20
60495;DHT22;46342;49.046;11.920;2023-02-28T01:52:30;0.10;55.20
60495;DHT22;46342;49.046;11.920;2023-02-28T01:54:58;0.10;55.30
60495;DHT22;46342;49.046;11.920;2023-02-28T01:57:29;0.10;55.30
60495;DHT22;46342;49.046;11.920;2023-02-28T02:00:02;0.10;55.40
60495;DHT22;46342;49.046;11.920;2023-02-28T02:02:33;0.10;55.40
60495;DHT22;46342;49.046;11.920;2023-02-28T02:05:04;0.10;55.40
60495;DHT22;46342;49.046;11.920;2023-02-28T02:07:33;0.10;55.40
60495;DHT22;46342;49.046;11.920;2023-02-28T02:10:02;0.10;55.50
60495;DHT22;46342;49.046;11.920;2023-02-28T02:16:02;0.10;55.70
60495;DHT22;46342;49.046;11.920;2023-02-28T02:18:50;0.10;55.60
60495;DHT22;46342;49.046;11.920;2023-02-28T02:27:03;0.00;55.50
60495;DHT22;46342;49.046;11.920;2023-02-28T02:41:33;0.00;55.50
60495;DHT22;46342;49.046;11.920;2023-02-28T02:46:48;-0.10;55.40
60495;DHT22;46342;49.046;11.920;2023-02-28T02:49:23;-0.10;55.30
60495;DHT22;46342;49.046;11.920;2023-02-28T02:51:50;-0.10;55.40
60495;DHT22;46342;49.046;11.920;2023-02-28T02:54:21;-0.10;55.30
60495;DHT22;46342;49.046;11.920;2023-02-28T02:56:49;-0.10;55.40
60495;DHT22;46342;49.046;11.920;2023-02-28T02:59:18;-0.20;55.30
60495;DHT22;46342;49.046;11.920;2023-02-28T03:01:50;-0.20;55.40
60495;DHT22;46342;49.046;11.920;2023-02-28T03:04:22;-0.20;55.40
60495;DHT22;46342;49.046;11.920;2023-02-28T03:06:48;-0.20;55.40
60495;DHT22;46342;49.046;11.920;2023-02-28T03:09:15;-0.20;55.40
60495;DHT22;46342;49.046;11.920;2023-02-28T03:11:41;-0.20;55.40
60495;DHT22;46342;49.046;11.920;2023-02-28T03:14:40;-0.20;55.40
60495;DHT22;46342;49.046;11.920;2023-02-28T03:33:42;-0.30;55.40
60495;DHT22;46342;49.046;11.920;2023-02-28T03:36:13;-0.30;55.50
60495;DHT22;46342;49.046;11.920;2023-02-28T03:39:04;-0.40;55.50
60495;DHT22;46342;49.046;11.920;2023-02-28T03:41:45;-0.40;55.50
60495;DHT22;46342;49.046;11.920;2023-02-28T03:44:20;-0.40;55.60
60495;DHT22;46342;49.046;11.920;2023-02-28T03:47:10;-0.40;55.50
60495;DHT22;46342;49.046;11.920;2023-02-28T03:49:48;-0.40;55.60
60495;DHT22;46342;49.046;11.920;2023-02-28T03:52:15;-0.40;55.70
60495;DHT22;46342;49.046;11.920;2023-02-28T03:54:46;-0.40;55.50
60495;DHT22;46342;49.046;11.920;2023-02-28T03:57:40;-0.40;55.60
60495;DHT22;46342;49.046;11.920;2023-02-28T04:00:21;-0.40;55.80
60495;DHT22;46342;49.046;11.920;2023-02-28T04:02:53;-0.40;55.80
60495;DHT22;46342;49.046;11.920;2023-02-28T04:05:21;-0.50;55.50
60495;DHT22;46342;49.046;11.920;2023-02-28T04:07:46;-0.50;55.60
60495;DHT22;46342;49.046;11.920;2023-02-28T04:10:13;-0.50;55.60
60495;DHT22;46342;49.046;11.920;2023-02-28T04:12:38;-0.50;55.60
60495;DHT22;46342;49.046;11.920;2023-02-28T04:15:04;-0.50;55.60
60495;DHT22;46342;49.046;11.920;2023-02-28T04:17:30;-0.50;55.70
60495;DHT22;46342;49.046;11.920;2023-02-28T04:19:56;-0.50;55.70
60495;DHT22;46342;49.046;11.920;2023-02-28T04:22:22;-0.50;55.70
60495;DHT22;46342;49.046;11.920;2023-02-28T04:24:51;-0.50;55.70
60495;DHT22;46342;49.046;11.920;2023-02-28T04:27:16;-0.50;55.70
60495;DHT22;46342;49.046;11.920;2023-02-28T04:29:42;-0.50;55.70
60495;DHT22;46342;49.046;11.920;2023-02-28T04:32:10;-0.50;55.70
60495;DHT22;46342;49.046;11.920;2023-02-28T04:34:36;-0.50;55.70
60495;DHT22;46342;49.046;11.920;2023-02-28T04:37:02;-0.50;55.80
60495;DHT22;46342;49.046;11.920;2023-02-28T04:39:28;-0.50;55.80
60495;DHT22;46342;49.046;11.920;2023-02-28T04:41:55;-0.50;55.80
60495;DHT22;46342;49.046;11.920;2023-02-28T04:44:22;-0.50;55.90
60495;DHT22;46342;49.046;11.920;2023-02-28T04:46:48;-0.50;55.90
60495;DHT22;46342;49.046;11.920;2023-02-28T04:49:14;-0.50;55.90
60495;DHT22;46342;49.046;11.920;2023-02-28T04:51:41;-0.50;55.90
60495;DHT22;46342;49.046;11.920;2023-02-28T04:54:07;-0.50;55.80
60495;DHT22;46342;49.046;11.920;2023-02-28T04:56:33;-0.50;55.90
60495;DHT22;46342;49.046;11.920;2023-02-28T04:58:58;-0.50;55.90
60495;DHT22;46342;49.046;11.920;2023-02-28T05:01:30;-0.60;55.90
60495;DHT22;46342;49.046;11.920;2023-02-28T05:03:57;-0.50;56.00
60495;DHT22;46342;49.046;11.920;2023-02-28T05:06:25;-0.50;56.00
60495;DHT22;46342;49.046;11.920;2023-02-28T05:08:52;-0.50;56.00
60495;DHT22;46342;49.046;11.920;2023-02-28T05:11:25;-0.60;55.90
60495;DHT22;46342;49.046;11.920;2023-02-28T05:13:51;-0.50;56.00
60495;DHT22;46342;49.046;11.920;2023-02-28T05:16:18;-0.60;55.90
60495;DHT22;46342;49.046;11.920;2023-02-28T05:18:44;-0.60;55.90
60495;DHT22;46342;49.046;11.920;2023-02-28T05:21:31;-0.60;55.90
60495;DHT22;46342;49.046;11.920;2023-02-28T05:23:59;-0.60;56.20
60495;DHT22;46342;49.046;11.920;2023-02-28T05:26:26;-0.60;56.00
60495;DHT22;46342;49.046;11.920;2023-02-28T05:28:52;-0.60;56.00
60495;DHT22;46342;49.046;11.920;2023-02-28T05:31:18;-0.60;56.00
60495;DHT22;46342;49.046;11.920;2023-02-28T05:33:43;-0.60;56.10
60495;DHT22;46342;49.046;11.920;2023-02-28T05:36:09;-0.60;56.10
60495;DHT22;46342;49.046;11.920;2023-02-28T05:38:34;-0.60;56.10
60495;DHT22;46342;49.046;11.920;2023-02-28T05:41:00;-0.60;56.00
60495;DHT22;46342;49.046;11.920;2023-02-28T05:43:25;-0.60;56.00
60495;DHT22;46342;49.046;11.920;2023-02-28T05:45:51;-0.60;56.10
60495;DHT22;46342;49.046;11.920;2023-02-28T05:48:16;-0.60;56.10
60495;DHT22;46342;49.046;11.920;2023-02-28T05:50:43;-0.60;56.10
60495;DHT22;46342;49.046;11.920;2023-02-28T05:53:10;-0.60;56.10
60495;DHT22;46342;49.046;11.920;2023-02-28T05:55:35;-0.60;56.10
60495;DHT22;46342;49.046;11.920;2023-02-28T05:58:02;-0.60;56.10
60495;DHT22;46342;49.046;11.920;2023-02-28T06:00:28;-0.50;56.20
60495;DHT22;46342;49.046;11.920;2023-02-28T06:02:53;-0.50;56.10
60495;DHT22;46342;49.046;11.920;2023-02-28T06:05:22;-0.50;56.20
60495;DHT22;46342;49.046;11.920;2023-02-28T06:07:47;-0.50;56.10
60495;DHT22;46342;49.046;11.920;2023-02-28T06:10:13;-0.50;56.20
60495;DHT22;46342;49.046;11.920;2023-02-28T06:12:39;-0.50;56.20
60495;DHT22;46342;49.046;11.920;2023-02-28T06:15:07;-0.50;56.20
60495;DHT22;46342;49.046;11.920;2023-02-28T06:17:33;-0.50;56.20
60495;DHT22;46342;49.046;11.920;2023-02-28T06:19:59;-0.50;56.10
60495;DHT22;46342;49.046;11.920;2023-02-28T06:22:24;-0.50;56.10
60495;DHT22;46342;49.046;11.920;2023-02-28T06:24:50;-0.50;56.10
60495;DHT22;46342;49.046;11.920;2023-02-28T06:27:15;-0.50;56.10
60495;DHT22;46342;49.046;11.920;2023-02-28T06:29:41;-0.40;56.20
60495;DHT22;46342;49.046;11.920;2023-02-28T06:32:06;-0.40;56.70
60495;DHT22;46342;49.046;11.920;2023-02-28T06:34:32;-0.40;56.10
60495;DHT22;46342;49.046;11.920;2023-02-28T06:36:59;-0.40;56.10
60495;DHT22;46342;49.046;11.920;2023-02-28T06:39:28;-0.40;56.10
60495;DHT22;46342;49.046;11.920;2023-02-28T06:41:53;-0.40;56.30
60495;DHT22;46342;49.046;11.920;2023-02-28T06:44:19;-0.30;56.10
60495;DHT22;46342;49.046;11.920;2023-02-28T06:46:45;-0.30;56.10
60495;DHT22;46342;49.046;11.920;2023-02-28T06:49:11;-0.30;56.10
60495;DHT22;46342;49.046;11.920;2023-02-28T06:51:39;-0.30;56.10
60495;DHT22;46342;49.046;11.920;2023-02-28T06:54:05;-0.30;56.00
60495;DHT22;46342;49.046;11.920;2023-02-28T06:56:34;-0.30;56.00
60495;DHT22;46342;49.046;11.920;2023-02-28T06:59:00;-0.20;56.10
60495;DHT22;46342;49.046;11.920;2023-02-28T07:01:25;-0.20;56.10
60495;DHT22;46342;49.046;11.920;2023-02-28T07:03:53;-0.20;56.10
60495;DHT22;46342;49.046;11.920;2023-02-28T07:06:20;-0.20;56.00
60495;DHT22;46342;49.046;11.920;2023-02-28T07:08:48;-0.10;56.10
60495;DHT22;46342;49.046;11.920;2023-02-28T07:11:14;-0.10;56.10
60495;DHT22;46342;49.046;11.920;2023-02-28T07:13:39;-0.10;56.00
60495;DHT22;46342;49.046;11.920;2023-02-28T07:16:07;0.00;56.10
60495;DHT22;46342;49.046;11.920;2023-02-28T07:18:35;0.00;56.00
60495;DHT22;46342;49.046;11.920;2023-02-28T07:21:06;0.00;56.00
60495;DHT22;46342;49.046;11.920;2023-02-28T07:23:32;0.10;56.00
60495;DHT22;46342;49.046;11.920;2023-02-28T07:25:58;0.10;56.10
60495;DHT22;46342;49.046;11.920;2023-02-28T07:28:24;0.20;56.00
60495;DHT22;46342;49.046;11.920;2023-02-28T07:30:50;0.20;56.00
60495;DHT22;46342;49.046;11.920;2023-02-28T07:33:15;0.20;56.00
60495;DHT22;46342;49.046;11.920;2023-02-28T07:35:41;0.30;56.00
60495;DHT22;46342;49.046;11.920;2023-02-28T07:38:07;0.30;56.00
60495;DHT22;46342;49.046;11.920;2023-02-28T07:40:33;0.30;56.10
60495;DHT22;46342;49.046;11.920;2023-02-28T07:43:00;0.40;56.00
60495;DHT22;46342;49.046;11.920;2023-02-28T07:45:26;0.50;56.20
60495;DHT22;46342;49.046;11.920;2023-02-28T07:47:54;0.50;56.10
60495;DHT22;46342;49.046;11.920;2023-02-28T07:50:20;0.60;56.10
60495;DHT22;46342;49.046;11.920;2023-02-28T07:52:45;0.60;56.10
60495;DHT22;46342;49.046;11.920;2023-02-28T07:55:11;0.60;56.10
60495;DHT22;46342;49.046;11.920;2023-02-28T07:57:36;0.70;56.20
60495;DHT22;46342;49.046;11.920;2023-02-28T08:00:07;0.80;56.20
60495;DHT22;46342;49.046;11.920;2023-02-28T08:02:34;0.80;56.10
60495;DHT22;46342;49.046;11.920;2023-02-28T08:05:00;0.80;56.10
60495;DHT22;46342;49.046;11.920;2023-02-28T08:07:26;0.90;56.20
60495;DHT22;46342;49.046;11.920;2023-02-28T08:09:52;0.90;56.20
60495;DHT22;46342;49.046;11.920;2023-02-28T08:12:17;1.00;56.20
60495;DHT22;46342;49.046;11.920;2023-02-28T08:14:43;1.10;56.20
60495;DHT22;46342;49.046;11.920;2023-02-28T08:17:09;1.10;56.10
60495;DHT22;46342;49.046;11.920;2023-02-28T08:19:35;1.20;56.20
60495;DHT22;46342;49.046;11.920;2023-02-28T08:22:01;1.20;56.20
60495;DHT22;46342;49.046;11.920;2023-02-28T08:24:27;1.20;56.20
60495;DHT22;46342;49.046;11.920;2023-02-28T08:26:52;1.30;56.00
60495;DHT22;46342;49.046;11.920;2023-02-28T08:29:18;1.40;56.20
60495;DHT22;46342;49.046;11.920;2023-02-28T08:31:43;1.50;56.30
60495;DHT22;46342;49.046;11.920;2023-02-28T08:34:11;1.60;56.30
60495;DHT22;46342;49.046;11.920;2023-02-28T08:36:37;1.60;56.10
60495;DHT22;46342;49.046;11.920;2023-02-28T08:39:03;1.70;56.10
60495;DHT22;46342;49.046;11.920;2023-02-28T08:41:29;1.80;56.20
60495;DHT22;46342;49.046;11.920;2023-02-28T08:43:55;1.90;56.20
60495;DHT22;46342;49.046;11.920;2023-02-28T08:46:20;2.00;56.30
60495;DHT22;46342;49.046;11.920;2023-02-28T08:48:46;2.00;56.10
60495;DHT22;46342;49.046;11.920;2023-02-28T08:51:16;2.20;56.00
60495;DHT22;46342;49.046;11.920;2023-02-28T08:53:44;2.30;55.90
60495;DHT22;46342;49.046;11.920;2023-02-28T08:56:12;2.30;55.90
60495;DHT22;46342;49.046;11.920;2023-02-28T08:58:38;2.40;55.50
60495;DHT22;46342;49.046;11.920;2023-02-28T09:01:09;2.50;55.50
60495;DHT22;46342;49.046;11.920;2023-02-28T09:03:34;2.60;55.50
60495;DHT22;46342;49.046;11.920;2023-02-28T09:06:01;2.70;55.10
60495;DHT22;46342;49.046;11.920;2023-02-28T09:08:28;2.70;54.90
60495;DHT22;46342;49.046;11.920;2023-02-28T09:10:53;2.80;54.60
60495;DHT22;46342;49.046;11.920;2023-02-28T09:13:21;2.90;54.90
60495;DHT22;46342;49.046;11.920;2023-02-28T09:15:47;3.00;54.90
60495;DHT22;46342;49.046;11.920;2023-02-28T09:18:12;3.10;55.40
60495;DHT22;46342;49.046;11.920;2023-02-28T09:20:39;3.10;55.10
60495;DHT22;46342;49.046;11.920;2023-02-28T09:23:06;3.20;55.20
60495;DHT22;46342;49.046;11.920;2023-02-28T09:25:31;3.30;55.00
60495;DHT22;46342;49.046;11.920;2023-02-28T09:27:57;3.40;55.30
60495;DHT22;46342;49.046;11.920;2023-02-28T09:30:23;3.50;55.00
60495;DHT22;46342;49.046;11.920;2023-02-28T09:32:48;3.60;55.20
60495;DHT22;46342;49.046;11.920;2023-02-28T09:35:24;3.70;54.40
60495;DHT22;46342;49.046;11.920;2023-02-28T09:37:53;3.80;54.40
60495;DHT22;46342;49.046;11.920;2023-02-28T09:40:20;3.90;54.40
60495;DHT22;46342;49.046;11.920;2023-02-28T09:42:48;4.00;54.50
60495;DHT22;46342;49.046;11.920;2023-02-28T09:45:34;4.00;54.80
60495;DHT22;46342;49.046;11.920;2023-02-28T09:48:14;4.20;54.60
60495;DHT22;46342;49.046;11.920;2023-02-28T09:50:46;4.30;53.80
60495;DHT22;46342;49.046;11.920;2023-02-28T09:53:26;4.40;53.80
60495;DHT22;46342;49.046;11.920;2023-02-28T09:55:57;4.40;53.70
60495;DHT22;46342;49.046;11.920;2023-02-28T09:58:45;4.50;53.60
60495;DHT22;46342;49.046;11.920;2023-02-28T10:01:39;4.60;53.40
60495;DHT22;46342;49.046;11.920;2023-02-28T10:06:55;4.70;52.60
60495;DHT22;46342;49.046;11.920;2023-02-28T10:09:26;4.80;54.00
60495;DHT22;46342;49.046;11.920;2023-02-28T10:11:56;4.80;53.70
60495;DHT22;46342;49.046;11.920;2023-02-28T10:14:28;4.90;52.80
60495;DHT22;46342;49.046;11.920;2023-02-28T10:17:02;5.00;52.80
60495;DHT22;46342;49.046;11.920;2023-02-28T10:19:35;5.00;52.00
60495;DHT22;46342;49.046;11.920;2023-02-28T10:22:14;5.10;52.20
60495;DHT22;46342;49.046;11.920;2023-02-28T10:29:48;5.20;51.20
60495;DHT22;46342;49.046;11.920;2023-02-28T10:32:18;5.20;51.90
60495;DHT22;46342;49.046;11.920;2023-02-28T10:34:44;5.30;51.40
60495;DHT22;46342;49.046;11.920;2023-02-28T10:37:11;5.30;51.40
60495;DHT22;46342;49.046;11.920;2023-02-28T10:39:41;5.30;50.90
60495;DHT22;46342;49.046;11.920;2023-02-28T10:42:21;5.40;51.40
60495;DHT22;46342;49.046;11.920;2023-02-28T10:44:47;5.40;50.80
60495;DHT22;46342;49.046;11.920;2023-02-28T10:47:17;5.40;51.90
60495;DHT22;46342;49.046;11.920;2023-02-28T10:49:50;5.50;51.30
60495;DHT22;46342;49.046;11.920;2023-02-28T10:52:47;5.50;50.10
60495;DHT22;46342;49.046;11.920;2023-02-28T10:55:18;5.60;50.70
60495;DHT22;46342;49.046;11.920;2023-02-28T10:57:44;5.60;52.00
60495;DHT22;46342;49.046;11.920;2023-02-28T11:00:19;5.70;52.00
60495;DHT22;46342;49.046;11.920;2023-02-28T11:02:45;5.80;50.50
60495;DHT22;46342;49.046;11.920;2023-02-28T11:05:41;5.80;51.30
60495;DHT22;46342;49.046;11.920;2023-02-28T11:08:14;5.90;49.30
60495;DHT22;46342;49.046;11.920;2023-02-28T11:10:46;5.90;49.90
60495;DHT22;46342;49.046;11.920;2023-02-28T11:13:20;5.90;50.20
60495;DHT22;46342;49.046;11.920;2023-02-28T11:15:53;5.90;49.90
60495;DHT22;46342;49.046;11.920;2023-02-28T11:20:50;6.00;50.50
60495;DHT22;46342;49.046;11.920;2023-02-28T11:23:17;6.00;49.60
60495;DHT22;46342;49.046;11.920;2023-02-28T11:25:51;6.00;50.50
60495;DHT22;46342;49.046;11.920;2023-02-28T11:28:28;6.10;50.40
60495;DHT22;46342;49.046;11.920;2023-02-28T11:33:54;6.10;49.90
60495;DHT22;46342;49.046;11.920;2023-02-28T11:36:27;6.20;49.80
60495;DHT22;46342;49.046;11.920;2023-02-28T11:39:03;6.20;50.50
60495;DHT22;46342;49.046;11.920;2023-02-28T11:41:58;6.20;50.90
60495;DHT22;46342;49.046;11.920;2023-02-28T11:44:44;6.30;50.50
60495;DHT22;46342;49.046;11.920;2023-02-28T11:47:29;6.40;50.40
60495;DHT22;46342;49.046;11.920;2023-02-28T11:50:33;6.40;50.30
60495;DHT22;46342;49.046;11.920;2023-02-28T11:53:14;6.50;50.20
60495;DHT22;46342;49.046;11.920;2023-02-28T11:56:05;6.60;49.70
60495;DHT22;46342;49.046;11.920;2023-02-28T12:03:56;6.80;50.70
60495;DHT22;46342;49.046;11.920;2023-02-28T12:11:55;6.90;49.50
60495;DHT22;46342;49.046;11.920;2023-02-28T12:14:54;6.90;49.30
60495;DHT22;46342;49.046;11.920;2023-02-28T12:20:32;7.00;50.40
60495;DHT22;46342;49.046;11.920;2023-02-28T12:26:20;7.10;49.10
60495;DHT22;46342;49.046;11.920;2023-02-28T12:28:51;7.10;49.70
60495;DHT22;46342;49.046;11.920;2023-02-28T12:31:21;7.20;49.40
60495;DHT22;46342;49.046;11.920;2023-02-28T12:33:52;7.20;49.60
60495;DHT22;46342;49.046;11.920;2023-02-28T12:36:20;7.20;49.90
60495;DHT22;46342;49.046;11.920;2023-02-28T12:39:03;7.20;50.10
60495;DHT22;46342;49.046;11.920;2023-02-28T12:41:41;7.30;49.10
60495;DHT22;46342;49.046;11.920;2023-02-28T12:47:28;7.40;49.20
60495;DHT22;46342;49.046;11.920;2023-02-28T12:58:32;7.60;49.40
60495;DHT22;46342;49.046;11.920;2023-02-28T13:07:05;7.70;48.40
60495;DHT22;46342;49.046;11.920;2023-02-28T13:09:33;7.70;48.70
60495;DHT22;46342;49.046;11.920;2023-02-28T13:11:59;7.60;49.30
60495;DHT22;46342;49.046;11.920;2023-02-28T13:19:37;7.70;47.70
60495;DHT22;46342;49.046;11.920;2023-02-28T13:22:03;7.70;48.30
60495;DHT22;46342;49.046;11.920;2023-02-28T13:24:45;7.60;48.70
60495;DHT22;46342;49.046;11.920;2023-02-28T13:29:50;7.60;48.20
60495;DHT22;46342;49.046;11.920;2023-02-28T13:32:29;7.60;48.90
60495;DHT22;46342;49.046;11.920;2023-02-28T13:39:57;7.70;48.60
60495;DHT22;46342;49.046;11.920;2023-02-28T13:47:45;7.70;48.80
60495;DHT22;46342;49.046;11.920;2023-02-28T13:53:13;7.70;49.10
60495;DHT22;46342;49.046;11.920;2023-02-28T14:04:14;7.60;47.90
60495;DHT22;46342;49.046;11.920;2023-02-28T14:06:49;7.60;48.90
60495;DHT22;46342;49.046;11.920;2023-02-28T14:09:34;7.60;48.60
60495;DHT22;46342;49.046;11.920;2023-02-28T14:15:30;7.60;47.10
60495;DHT22;46342;49.046;11.920;2023-02-28T14:18:03;7.60;47.20
60495;DHT22;46342;49.046;11.920;2023-02-28T14:20:32;7.60;48.30
60495;DHT22;46342;49.046;11.920;2023-02-28T14:23:10;7.60;48.40
60495;DHT22;46342;49.046;11.920;2023-02-28T14:25:54;7.60;48.30
60495;DHT22;46342;49.046;11.920;2023-02-28T14:28:49;7.60;48.70
60495;DHT22;46342;49.046;11.920;2023-02-28T14:31:28;7.60;48.40
60495;DHT22;46342;49.046;11.920;2023-02-28T14:34:23;7.60;48.80
60495;DHT22;46342;49.046;11.920;2023-02-28T14:36:50;7.60;48.60
60495;DHT22;46342;49.046;11.920;2023-02-28T14:39:22;7.60;49.40
60495;DHT22;46342;49.046;11.920;2023-02-28T14:41:48;7.60;49.10
60495;DHT22;46342;49.046;11.920;2023-02-28T14:44:20;7.60;49.40
60495;DHT22;46342;49.046;11.920;2023-02-28T14:47:01;7.60;49.10
60495;DHT22;46342;49.046;11.920;2023-02-28T14:49:44;7.60;49.10
60495;DHT22;46342;49.046;11.920;2023-02-28T14:54:41;7.60;48.70
60495;DHT22;46342;49.046;11.920;2023-02-28T14:57:21;7.60;49.10
60495;DHT22;46342;49.046;11.920;2023-02-28T14:59:56;7.50;47.80
60495;DHT22;46342;49.046;11.920;2023-02-28T15:02:23;7.50;48.90
60495;DHT22;46342;49.046;11.920;2023-02-28T15:05:19;7.40;48.90
60495;DHT22;46342;49.046;11.920;2023-02-28T15:07:47;7.40;48.50
60495;DHT22;46342;49.046;11.920;2023-02-28T15:12:40;7.30;49.00
60495;DHT22;46342;49.046;11.920;2023-02-28T15:15:14;7.30;49.30
60495;DHT22;46342;49.046;11.920;2023-02-28T15:17:46;7.30;49.20
60495;DHT22;46342;49.046;11.920;2023-02-28T15:20:15;7.30;48.90
60495;DHT22;46342;49.046;11.920;2023-02-28T15:22:41;7.30;49.20
60495;DHT22;46342;49.046;11.920;2023-02-28T15:25:10;7.30;49.10
60495;DHT22;46342;49.046;11.920;2023-02-28T15:27:44;7.30;48.90
60495;DHT22;46342;49.046;11.920;2023-02-28T15:30:19;7.30;48.70
60495;DHT22;46342;49.046;11.920;2023-02-28T15:33:02;7.30;48.60
60495;DHT22;46342;49.046;11.920;2023-02-28T15:35:30;7.30;48.50
60495;DHT22;46342;49.046;11.920;2023-02-28T15:37:57;7.30;49.20
60495;DHT22;46342;49.046;11.920;2023-02-28T15:40:28;7.30;48.40
60495;DHT22;46342;49.046;11.920;2023-02-28T15:43:12;7.30;49.10
60495;DHT22;46342;49.046;11.920;2023-02-28T15:46:08;7.30;48.20
60495;DHT22;46342;49.046;11.920;2023-02-28T15:48:45;7.30;48.10
60495;DHT22;46342;49.046;11.920;2023-02-28T15:51:33;7.20;48.50
60495;DHT22;46342;49.046;11.920;2023-02-28T15:54:01;7.20;48.50
60495;DHT22;46342;49.046;11.920;2023-02-28T15:56:33;7.10;48.80
60495;DHT22;46342;49.046;11.920;2023-02-28T15:59:03;7.10;48.70
60495;DHT22;46342;49.046;11.920;2023-02-28T16:01:36;7.00;48.80
60495;DHT22;46342;49.046;11.920;2023-02-28T16:04:15;7.00;48.60
60495;DHT22;46342;49.046;11.920;2023-02-28T16:06:45;7.00;48.30
60495;DHT22;46342;49.046;11.920;2023-02-28T16:09:14;6.90;48.60
60495;DHT22;46342;49.046;11.920;2023-02-28T16:11:41;6.90;48.70
60495;DHT22;46342;49.046;11.920;2023-02-28T16:14:17;6.90;48.30
60495;DHT22;46342;49.046;11.920;2023-02-28T16:16:48;6.80;48.40
60495;DHT22;46342;49.046;11.920;2023-02-28T16:19:15;6.70;48.60
60495;DHT22;46342;49.046;11.920;2023-02-28T16:21:40;6.60;48.70
60495;DHT22;46342;49.046;11.920;2023-02-28T16:24:06;6.60;49.30
60495;DHT22;46342;49.046;11.920;2023-02-28T16:26:32;6.50;48.80
60495;DHT22;46342;49.046;11.920;2023-02-28T16:29:00;6.40;48.70
60495;DHT22;46342;49.046;11.920;2023-02-28T16:31:25;6.30;48.60
60495;DHT22;46342;49.046;11.920;2023-02-28T16:33:51;6.30;48.80
60495;DHT22;46342;49.046;11.920;2023-02-28T16:36:20;6.20;48.80
60495;DHT22;46342;49.046;11.920;2023-02-28T16:38:46;6.20;48.80
60495;DHT22;46342;49.046;11.920;2023-02-28T16:41:14;6.10;48.80
60495;DHT22;46342;49.046;11.920;2023-02-28T16:43:45;6.00;48.70
60495;DHT22;46342;49.046;11.920;2023-02-28T16:46:11;5.90;48.80
60495;DHT22;46342;49.046;11.920;2023-02-28T16:48:38;5.90;48.90
60495;DHT22;46342;49.046;11.920;2023-02-28T16:51:06;5.80;48.90
60495;DHT22;46342;49.046;11.920;2023-02-28T16:53:33;5.80;48.90
60495;DHT22;46342;49.046;11.920;2023-02-28T16:56:00;5.70;48.90
60495;DHT22;46342;49.046;11.920;2023-02-28T16:58:27;5.60;48.90
60495;DHT22;46342;49.046;11.920;2023-02-28T17:00:53;5.50;49.00
60495;DHT22;46342;49.046;11.920;2023-02-28T17:03:27;5.50;49.10
60495;DHT22;46342;49.046;11.920;2023-02-28T17:05:53;5.50;48.90
60495;DHT22;46342;49.046;11.920;2023-02-28T17:08:19;5.40;49.10
60495;DHT22;46342;49.046;11.920;2023-02-28T17:10:44;5.40;49.20
60495;DHT22;46342;49.046;11.920;2023-02-28T17:13:10;5.30;49.30
60495;DHT22;46342;49.046;11.920;2023-02-28T17:15:37;5.30;49.30
60495;DHT22;46342;49.046;11.920;2023-02-28T17:18:03;5.20;49.30
60495;DHT22;46342;49.046;11.920;2023-02-28T17:20:29;5.20;49.30
60495;DHT22;46342;49.046;11.920;2023-02-28T17:22:56;5.20;49.40
60495;DHT22;46342;49.046;11.920;2023-02-28T17:25:23;5.10;49.40
60495;DHT22;46342;49.046;11.920;2023-02-28T17:27:49;5.10;49.60
60495;DHT22;46342;49.046;11.920;2023-02-28T17:30:19;5.00;49.60
60495;DHT22;46342;49.046;11.920;2023-02-28T17:32:44;5.00;49.60
60495;DHT22;46342;49.046;11.920;2023-02-28T17:35:10;5.00;49.70
60495;DHT22;46342;49.046;11.920;2023-02-28T17:37:36;5.00;49.70
60495;DHT22;46342;49.046;11.920;2023-02-28T17:40:02;4.90;49.80
60495;DHT22;46342;49.046;11.920;2023-02-28T17:42:28;4.90;49.80
60495;DHT22;46342;49.046;11.920;2023-02-28T17:44:53;4.90;49.80
60495;DHT22;46342;49.046;11.920;2023-02-28T17:47:19;4.90;49.80
60495;DHT22;46342;49.046;11.920;2023-02-28T17:49:44;4.80;49.80